Terminal Aerodrome Forecast
Issued by NWS

Home | Current Version | Previous Version | Graphics & Text | Print | Product List | Glossary On
Versions: 1 2 3 4 5 6 7 8 9 10 11 12 13 14 15 16 17 18 19 20 21 22 23 24 25 26 27 28 29
000
FTUS43 KLOT 231515 AAA
TAFDPA
TAF AMD
KDPA 231515Z 2315/2412 18007KT P6SM BKN035 BKN250
     FM231800 19006KT P6SM VCTS BKN040CB BKN250
     FM232100 18004KT P6SM SCT040 BKN250
     FM241000 18009KT P6SM -SHRA SCT040 OVC100=

USA.gov is the U.S. government's official web portal to all federal, state and local government web resources and services.